Time;durP1;ratioP1;P1;durP2;ratioP2;P2;SDS_P1;SDS_P2;PMS_P1;PMS_P2;Temp;Humidity;BMP_temperature;BMP_pressure;BME280_temperature;BME280_humidity;BME280_pressure;Samples;Min_cycle;Max_cycle;Signal;HPM_P1;HPM_P2
2022/09/11 00:01:14;;;;;;;;;14.33;14.00;;;;;17.93;70.54;101156.25;4959036;28;45464;-58
2022/09/11 00:03:41;;;;;;;;;14.67;12.67;;;;;17.91;69.77;101158.13;4958870;28;45498;-59
2022/09/11 00:06:10;;;;;;;;;16.33;14.67;;;;;17.93;69.67;101155.41;4958759;28;46370;-58
2022/09/11 00:08:36;;;;;;;;;12.00;10.33;;;;;17.94;69.63;101157.09;4958769;28;45382;-59
2022/09/11 00:11:16;;;;;;;;;13.00;13.00;;;;;17.95;69.67;101148.19;4958936;28;45388;-59
2022/09/11 00:13:43;;;;;;;;;14.33;12.33;;;;;17.94;69.80;101152.63;4941262;28;45406;-59
2022/09/11 00:16:26;;;;;;;;;15.33;14.33;;;;;17.95;69.37;101150.84;4958468;28;46297;-59
2022/09/11 00:18:53;;;;;;;;;15.67;13.67;;;;;17.97;69.41;101144.47;4958574;28;45522;-59
2022/09/11 00:21:19;;;;;;;;;16.00;14.33;;;;;17.94;69.41;101147.31;4958675;28;45390;-59
2022/09/11 00:23:45;;;;;;;;;12.33;10.33;;;;;17.81;69.53;101133.88;4958658;28;45390;-59
2022/09/11 00:26:10;;;;;;;;;13.00;13.00;;;;;17.80;69.81;101137.47;4958284;28;46024;-59
2022/09/11 00:28:36;;;;;;;;;13.67;12.00;;;;;17.89;69.53;101157.34;4958431;28;45470;-59
2022/09/11 00:31:06;;;;;;;;;13.67;11.67;;;;;17.88;69.96;101147.66;4959042;28;45424;-59
2022/09/11 00:33:32;;;;;;;;;14.67;14.33;;;;;17.80;70.22;101133.94;4958258;28;45549;-59
2022/09/11 00:36:02;;;;;;;;;11.33;11.33;;;;;17.86;70.28;101144.22;4958167;28;46199;-59
2022/09/11 00:38:30;;;;;;;;;15.00;14.00;;;;;17.85;70.01;101147.84;4940897;28;45503;-59
2022/09/11 00:40:58;;;;;;;;;16.67;16.33;;;;;17.90;69.99;101142.28;4958338;28;45497;-59
2022/09/11 00:43:26;;;;;;;;;15.33;13.00;;;;;17.90;69.82;101142.28;4958103;28;45632;-59
2022/09/11 00:45:58;;;;;;;;;12.67;12.67;;;;;17.96;69.77;101141.91;4958117;28;47219;-59
2022/09/11 00:48:29;;;;;;;;;16.33;14.67;;;;;17.96;69.59;101133.94;4958293;28;45389;-59
2022/09/11 00:50:58;;;;;;;;;10.67;10.67;;;;;17.93;69.67;101136.78;4958079;28;45546;-59
2022/09/11 00:53:25;;;;;;;;;14.33;13.33;;;;;17.88;69.44;101121.06;4958163;28;45385;-59
2022/09/11 00:55:57;;;;;;;;;12.33;12.33;;;;;17.93;69.37;101134.97;4957504;28;46058;-59
2022/09/11 00:58:26;;;;;;;;;14.00;14.00;;;;;17.95;69.36;101138.41;4958427;28;45406;-59
2022/09/11 01:00:55;;;;;;;;;11.33;11.33;;;;;17.91;69.63;101128.84;4958351;28;45510;-59
2022/09/11 01:03:22;;;;;;;;;12.00;11.67;;;;;17.83;69.56;101131.97;4957768;28;45481;-59
2022/09/11 01:05:48;;;;;;;;;11.67;11.67;;;;;17.83;69.62;101131.09;4957915;28;45390;-58
2022/09/11 01:08:13;;;;;;;;;8.33;8.33;;;;;17.83;69.80;101129.28;4958010;28;45340;-60
2022/09/11 01:11:07;;;;;;;;;12.33;10.67;;;;;17.75;69.62;101123.53;4958121;28;45351;-59
2022/09/11 01:13:47;;;;;;;;;10.67;10.67;;;;;17.70;69.77;101106.09;4958213;28;46023;-59
2022/09/11 01:16:20;;;;;;;;;13.00;11.67;;;;;17.79;70.02;101127.78;4957953;28;45425;-59
2022/09/11 01:19:07;;;;;;;;;11.00;11.00;;;;;17.80;69.82;101120.63;4958081;28;45390;-58
2022/09/11 01:21:57;;;;;;;;;13.67;12.33;;;;;17.82;69.76;101118.75;4957371;28;45481;-59
2022/09/11 01:24:37;;;;;;;;;13.33;12.33;;;;;17.80;69.57;101113.50;4957982;28;45338;-59
2022/09/11 01:27:31;;;;;;;;;15.00;15.00;;;;;17.71;70.00;101108.69;4957657;28;46238;-59
2022/09/11 01:30:09;;;;;;;;;13.33;13.33;;;;;17.77;69.98;101107.50;4957674;28;45538;-59
2022/09/11 01:33:13;;;;;;;;;12.00;12.00;;;;;17.74;69.96;101116.50;4958149;28;45458;-59
2022/09/11 01:35:41;;;;;;;;;10.00;10.00;;;;;17.70;70.09;101114.94;4939952;28;45456;-59
2022/09/11 01:38:35;;;;;;;;;8.33;8.00;;;;;17.66;70.01;101105.44;4972371;28;47206;-59
2022/09/11 01:41:22;;;;;;;;;11.33;11.33;;;;;17.65;69.98;101117.00;4957463;28;45532;-59
2022/09/11 01:43:55;;;;;;;;;13.00;13.00;;;;;17.59;70.56;101117.34;4957614;28;45481;-59
2022/09/11 01:46:23;;;;;;;;;12.00;12.00;;;;;17.57;70.41;101105.94;4957849;28;45389;-59
2022/09/11 01:49:01;;;;;;;;;11.67;11.67;;;;;17.58;70.39;101113.00;4957349;28;45371;-59
2022/09/11 01:51:30;;;;;;;;;10.33;9.00;;;;;17.57;70.58;101109.47;4957194;28;45497;-58
2022/09/11 01:53:58;;;;;;;;;11.00;11.00;;;;;17.63;70.43;101102.94;4957329;28;45378;-59
2022/09/11 01:56:34;;;;;;;;;15.67;14.67;;;;;17.64;69.95;101102.84;4957382;28;45670;-58
2022/09/11 01:59:05;;;;;;;;;12.33;12.33;;;;;17.69;70.27;101112.38;4957428;28;45405;-59
2022/09/11 02:01:37;;;;;;;;;12.33;12.33;;;;;17.69;69.83;101110.56;4957335;28;45437;-60
2022/09/11 02:04:12;;;;;;;;;11.00;11.00;;;;;17.70;69.96;101114.09;4957282;28;45539;-60
2022/09/11 02:07:28;;;;;;;;;11.33;11.00;;;;;17.68;69.65;101114.19;4957170;28;45461;-60
2022/09/11 02:10:00;;;;;;;;;15.00;12.00;;;;;17.66;70.02;101108.09;4878275;29;45552;-60
2022/09/11 02:12:34;;;;;;;;;11.33;10.00;;;;;17.67;69.86;101109.81;4878163;29;45437;-60
2022/09/11 02:14:59;;;;;;;;;14.00;12.00;;;;;17.67;69.96;101105.34;4922633;28;45452;-60
2022/09/11 02:17:35;;;;;;;;;12.33;12.33;;;;;17.66;69.97;101102.78;4957079;28;45530;-60
2022/09/11 02:20:01;;;;;;;;;13.67;13.67;;;;;17.58;70.45;101095.22;4957128;28;45379;-59
2022/09/11 02:22:26;;;;;;;;;14.33;14.33;;;;;17.66;69.94;101100.97;4971822;28;45841;-60
2022/09/11 02:24:52;;;;;;;;;13.33;13.33;;;;;17.64;70.30;101096.69;4956955;28;45495;-60
2022/09/11 02:27:27;;;;;;;;;14.00;13.67;;;;;17.69;69.90;101102.59;4957051;28;45656;-60
2022/09/11 02:29:53;;;;;;;;;18.67;13.67;;;;;17.63;70.01;101095.81;4956633;28;45572;-60
2022/09/11 02:32:21;;;;;;;;;13.00;11.33;;;;;17.69;70.35;101094.63;4956424;28;45378;-59
2022/09/11 02:34:49;;;;;;;;;13.33;13.33;;;;;17.66;70.10;101098.31;4956956;28;45524;-60
2022/09/11 02:37:37;;;;;;;;;13.67;13.00;;;;;17.67;70.44;101108.00;4956870;28;45395;-59
2022/09/11 02:40:25;;;;;;;;;12.33;12.33;;;;;17.66;69.78;101106.28;4956080;28;45716;-60
2022/09/11 02:43:15;;;;;;;;;14.33;11.67;;;;;17.65;69.80;101111.69;4956811;28;45501;-59
2022/09/11 02:45:51;;;;;;;;;12.67;11.33;;;;;17.66;70.00;101108.09;4956745;28;45432;-60
2022/09/11 02:48:42;;;;;;;;;14.00;12.33;;;;;17.64;70.05;101113.50;4939138;28;45427;-60
2022/09/11 02:51:20;;;;;;;;;11.67;11.67;;;;;17.64;69.69;101109.97;4956546;28;46499;-60
2022/09/11 02:53:56;;;;;;;;;14.33;13.67;;;;;17.63;69.74;101106.47;4956702;28;45371;-60
2022/09/11 02:57:03;;;;;;;;;18.67;17.67;;;;;17.61;70.03;101102.19;4956726;28;45395;-60
2022/09/11 02:59:50;;;;;;;;;11.33;11.00;;;;;17.61;69.90;101112.81;4948572;28;45674;-59
2022/09/11 03:02:17;;;;;;;;;13.67;12.67;;;;;17.58;69.83;101111.19;4956519;28;47371;-59
2022/09/11 03:04:44;;;;;;;;;12.67;12.67;;;;;17.58;69.71;101110.34;4956304;28;45482;-59
2022/09/11 03:07:10;;;;;;;;;14.33;13.00;;;;;17.59;70.05;101101.41;4956504;28;45365;-59
2022/09/11 03:09:35;;;;;;;;;15.33;14.67;;;;;17.62;69.84;101103.88;4956620;28;45466;-59
2022/09/11 03:12:03;;;;;;;;;14.00;13.00;;;;;17.59;70.65;101096.94;4955865;28;45922;-60
2022/09/11 03:14:28;;;;;;;;;13.33;11.67;;;;;17.56;70.19;101099.78;4956402;28;45519;-60
2022/09/11 03:16:54;;;;;;;;;14.67;14.00;;;;;17.57;70.26;101095.31;4956230;28;45544;-60
2022/09/11 03:19:20;;;;;;;;;14.33;14.33;;;;;17.59;70.21;101093.41;4956227;28;45505;-59
2022/09/11 03:21:45;;;;;;;;;14.33;14.33;;;;;17.58;70.47;101103.22;4956038;28;46325;-59
2022/09/11 03:24:12;;;;;;;;;12.67;12.67;;;;;17.52;70.21;101089.41;4938776;28;45441;-59
2022/09/11 03:26:37;;;;;;;;;17.33;17.33;;;;;17.59;69.87;101098.75;4956327;28;46235;-59
2022/09/11 03:29:03;;;;;;;;;12.67;12.67;;;;;17.60;70.02;101108.44;4938979;28;45494;-59
2022/09/11 03:31:28;;;;;;;;;15.67;14.67;;;;;17.58;69.96;101092.56;4956769;28;45434;-59
2022/09/11 03:33:54;;;;;;;;;11.67;11.67;;;;;17.61;69.97;101097.72;4956141;28;45417;-60
2022/09/11 03:36:19;;;;;;;;;13.67;13.67;;;;;17.60;69.79;101100.47;4956463;28;45375;-59
2022/09/11 03:38:46;;;;;;;;;17.00;14.67;;;;;17.57;69.87;101104.16;4956031;28;45525;-59
2022/09/11 03:41:12;;;;;;;;;16.33;16.33;;;;;17.46;70.27;101087.94;4955902;28;46077;-59
2022/09/11 03:43:38;;;;;;;;;13.67;13.33;;;;;17.50;70.18;101092.16;4956532;28;45433;-59
2022/09/11 03:46:03;;;;;;;;;18.33;16.33;;;;;17.51;70.13;101090.34;4974297;28;45592;-59
2022/09/11 03:48:29;;;;;;;;;12.67;12.33;;;;;17.51;70.25;101093.00;4959356;28;45616;-59
2022/09/11 03:50:54;;;;;;;;;16.33;14.67;;;;;17.49;70.52;101093.09;4959317;28;45585;-59
2022/09/11 03:53:19;;;;;;;;;16.67;16.67;;;;;17.49;70.36;101097.53;4959103;28;45442;-59
2022/09/11 03:55:45;;;;;;;;;15.67;15.67;;;;;17.49;70.40;101101.09;4959359;28;45531;-60
2022/09/11 03:58:11;;;;;;;;;15.33;12.33;;;;;17.53;70.14;101096.44;4959311;28;45597;-59
2022/09/11 04:00:46;;;;;;;;;13.33;13.33;;;;;17.45;70.06;101092.41;4959134;28;45418;-60
2022/09/11 04:03:14;;;;;;;;;15.33;14.33;;;;;17.53;69.99;101102.59;4959145;28;45552;-59
2022/09/11 04:05:41;;;;;;;;;13.00;13.00;;;;;17.52;70.08;101097.38;4959086;28;45425;-59
2022/09/11 04:08:11;;;;;;;;;15.33;14.33;;;;;17.41;69.79;101082.91;4959089;28;45405;-60
2022/09/11 04:10:37;;;;;;;;;14.33;13.67;;;;;17.47;69.97;101094.97;4958764;28;45457;-59
2022/09/11 04:13:02;;;;;;;;;11.67;10.67;;;;;17.47;70.16;101094.13;4958802;28;45533;-60
2022/09/11 04:15:28;;;;;;;;;14.00;13.33;;;;;17.43;69.94;101088.97;4958968;28;45366;-59
2022/09/11 04:17:53;;;;;;;;;15.33;13.33;;;;;17.43;69.91;101094.28;4958906;28;45575;-61
2022/09/11 04:20:19;;;;;;;;;15.00;12.33;;;;;17.47;69.85;101100.31;4958730;28;45391;-60
2022/09/11 04:22:44;;;;;;;;;12.33;11.67;;;;;17.43;69.64;101093.44;4958922;28;45374;-59
2022/09/11 04:25:11;;;;;;;;;12.67;12.67;;;;;17.48;69.79;101103.81;4958869;28;45392;-59
2022/09/11 04:27:36;;;;;;;;;12.33;12.33;;;;;17.38;69.75;101092.81;4958587;28;45335;-59
2022/09/11 04:30:02;;;;;;;;;13.67;13.67;;;;;17.45;69.70;101105.69;4958446;28;46317;-59
2022/09/11 04:32:28;;;;;;;;;13.67;13.67;;;;;17.38;69.71;101107.00;4958992;28;45558;-59
2022/09/11 04:34:53;;;;;;;;;16.33;15.00;;;;;17.36;69.80;101108.03;4958745;28;45512;-59
2022/09/11 04:37:18;;;;;;;;;12.67;11.67;;;;;17.29;69.96;101099.50;4958594;28;46490;-59
2022/09/11 04:39:44;;;;;;;;;16.67;15.67;;;;;17.32;69.83;101102.00;4958227;28;46034;-59
2022/09/11 04:42:09;;;;;;;;;12.00;10.67;;;;;17.38;69.50;101107.00;4958342;28;49316;-59
2022/09/11 04:44:35;;;;;;;;;14.67;14.67;;;;;17.37;69.69;101107.91;4958412;28;45453;-59
2022/09/11 04:47:00;;;;;;;;;13.33;12.33;;;;;17.34;69.43;101113.41;4958639;28;45495;-59
2022/09/11 04:49:26;;;;;;;;;16.00;14.33;;;;;17.27;69.44;101101.41;4958388;28;45485;-60
2022/09/11 04:51:52;;;;;;;;;0.00;0.00;;;;;17.30;70.07;101116.31;4958390;28;45518;-59
2022/09/11 04:54:21;;;;;;;;;15.67;14.67;;;;;17.20;69.42;101100.88;4958209;28;45460;-59
2022/09/11 04:56:46;;;;;;;;;12.67;12.67;;;;;17.25;69.70;101113.94;4957790;28;45376;-60
2022/09/11 04:59:16;;;;;;;;;13.33;12.67;;;;;17.23;69.76;101114.00;4958182;28;45291;-60
2022/09/11 05:01:42;;;;;;;;;14.67;14.67;;;;;17.28;69.61;101123.53;4958298;28;45421;-60
2022/09/11 05:04:10;;;;;;;;;17.00;16.00;;;;;17.21;69.58;101115.03;4958420;28;45351;-60
2022/09/11 05:06:36;;;;;;;;;11.33;11.33;;;;;17.27;69.78;101119.16;4957895;28;45446;-59
2022/09/11 05:09:04;;;;;;;;;14.33;14.33;;;;;17.26;69.89;101123.63;4957922;28;45524;-59
2022/09/11 05:11:30;;;;;;;;;18.33;15.33;;;;;17.20;69.88;101115.97;4957717;28;45461;-59
2022/09/11 05:13:58;;;;;;;;;18.33;18.00;;;;;17.25;70.10;101132.53;4957988;28;45821;-59
2022/09/11 05:16:26;;;;;;;;;14.33;14.00;;;;;17.17;70.19;101124.13;4958043;28;45329;-59
2022/09/11 05:18:52;;;;;;;;;14.67;14.67;;;;;17.17;69.90;101134.75;4957735;28;45475;-59
2022/09/11 05:21:18;;;;;;;;;12.00;12.00;;;;;17.18;70.10;101132.00;4957874;28;45422;-59
2022/09/11 05:23:47;;;;;;;;;14.33;13.00;;;;;17.16;69.83;101128.56;4958005;28;45454;-60
2022/09/11 05:26:18;;;;;;;;;13.00;13.00;;;;;17.18;70.07;101132.00;4957740;28;45545;-59
2022/09/11 05:28:44;;;;;;;;;15.00;15.00;;;;;17.11;70.53;101124.44;4957514;28;46635;-59
2022/09/11 05:31:12;;;;;;;;;18.33;17.33;;;;;17.05;70.39;101124.78;4957296;28;45832;-60
2022/09/11 05:33:38;;;;;;;;;21.00;18.67;;;;;16.98;70.27;101125.13;4958260;28;45480;-59
2022/09/11 05:36:04;;;;;;;;;16.33;16.33;;;;;17.15;70.67;101147.28;4957789;28;45412;-59
2022/09/11 05:38:30;;;;;;;;;17.00;17.00;;;;;17.17;69.95;101148.06;4957333;28;46629;-60
2022/09/11 05:40:55;;;;;;;;;15.67;15.33;;;;;17.17;70.11;101145.41;4957409;28;45338;-60
2022/09/11 05:43:21;;;;;;;;;16.67;16.67;;;;;17.19;70.11;101148.81;4957765;28;45929;-59
2022/09/11 05:45:54;;;;;;;;;17.33;17.33;;;;;17.20;70.15;101150.53;4957615;28;45588;-59
2022/09/11 05:48:19;;;;;;;;;18.00;17.00;;;;;17.16;70.18;101155.16;4957426;28;45485;-59
2022/09/11 05:50:52;;;;;;;;;17.00;16.67;;;;;17.09;69.66;101136.97;4957143;28;49390;-59
2022/09/11 05:53:19;;;;;;;;;17.00;17.00;;;;;17.18;69.96;101153.28;4957281;28;45405;-59
2022/09/11 05:55:46;;;;;;;;;18.67;18.67;;;;;17.09;70.38;101143.16;4957251;28;45386;-59
2022/09/11 05:58:12;;;;;;;;;18.67;16.67;;;;;17.16;70.44;101159.59;4957356;28;45331;-59
2022/09/11 06:00:37;;;;;;;;;15.33;15.00;;;;;17.16;70.27;101163.13;4957285;28;45354;-60
2022/09/11 06:03:03;;;;;;;;;18.33;18.33;;;;;17.18;70.33;101163.91;4957171;28;45439;-59
2022/09/11 06:05:29;;;;;;;;;20.33;17.00;;;;;17.08;69.89;101149.38;4957426;28;45593;-60
2022/09/11 06:07:54;;;;;;;;;18.67;17.00;;;;;17.17;70.39;101156.88;4956912;28;45426;-59
2022/09/11 06:10:20;;;;;;;;;24.00;23.33;;;;;17.22;70.26;101164.59;4957099;28;45335;-59
2022/09/11 06:12:45;;;;;;;;;17.33;17.33;;;;;17.26;70.17;101171.47;4957042;28;45473;-57
2022/09/11 06:15:10;;;;;;;;;18.00;18.00;;;;;17.24;70.11;101165.38;4957023;28;45525;-59
2022/09/11 06:17:36;;;;;;;;;20.00;18.33;;;;;17.29;70.13;101175.75;4956750;28;45765;-59
2022/09/11 06:20:02;;;;;;;;;21.00;19.33;;;;;17.28;70.30;101172.25;4939522;28;45522;-58
2022/09/11 06:22:30;;;;;;;;;17.33;17.33;;;;;17.26;70.37;101163.50;4956187;28;45552;-58
2022/09/11 06:24:56;;;;;;;;;20.67;18.33;;;;;17.32;69.96;101172.94;4939615;28;45427;-58
2022/09/11 06:27:22;;;;;;;;;17.67;17.67;;;;;17.34;70.46;101174.56;4956658;28;46926;-59
2022/09/11 06:29:48;;;;;;;;;19.33;17.33;;;;;17.30;70.66;101167.72;4971564;28;45505;-59
2022/09/11 06:32:13;;;;;;;;;18.67;18.67;;;;;17.27;70.06;101167.00;4940004;28;45446;-59
2022/09/11 06:34:38;;;;;;;;;16.67;16.00;;;;;17.37;70.14;101179.72;4956786;28;45575;-58
2022/09/11 06:37:04;;;;;;;;;17.00;17.00;;;;;17.38;70.03;101175.25;4956416;28;46148;-58
2022/09/11 06:39:29;;;;;;;;;23.33;18.00;;;;;17.40;69.80;101174.22;4956419;28;45418;-58
2022/09/11 06:41:54;;;;;;;;;20.00;19.00;;;;;17.40;69.98;101176.03;4956584;28;45489;-58
2022/09/11 06:44:20;;;;;;;;;20.67;17.33;;;;;17.43;69.74;101178.53;4956670;28;45435;-59
2022/09/11 06:46:46;;;;;;;;;19.67;17.33;;;;;17.45;69.61;101184.63;4956728;28;46104;-58
2022/09/11 06:49:11;;;;;;;;;19.33;19.33;;;;;17.47;69.47;101185.41;4956477;28;45441;-59
2022/09/11 06:51:38;;;;;;;;;18.00;17.67;;;;;17.49;69.47;101185.28;4956391;28;45382;-59
2022/09/11 06:54:04;;;;;;;;;21.00;21.00;;;;;17.50;69.65;101181.72;4956626;28;45600;-59
2022/09/11 06:56:31;;;;;;;;;19.00;19.00;;;;;17.44;69.64;101170.47;4956427;28;46598;-58
2022/09/11 06:58:56;;;;;;;;;23.00;23.00;;;;;17.51;69.50;101168.31;4956283;28;45418;-58
2022/09/11 07:01:22;;;;;;;;;19.67;17.00;;;;;17.55;69.62;101169.88;4956588;28;45370;-58
2022/09/11 07:03:49;;;;;;;;;19.33;18.33;;;;;17.58;69.45;101176.84;4956413;28;45582;-58
2022/09/11 07:06:23;;;;;;;;;21.00;21.00;;;;;17.60;69.57;101180.28;4956057;28;46323;-58
2022/09/11 07:08:56;;;;;;;;;22.67;22.67;;;;;17.63;69.72;101177.44;4956471;28;45423;-59
2022/09/11 07:11:21;;;;;;;;;25.33;21.67;;;;;17.64;69.81;101166.69;4956538;28;45426;-59
2022/09/11 07:13:47;;;;;;;;;20.67;20.67;;;;;17.67;69.68;101170.97;4956149;28;45557;-59
2022/09/11 07:16:13;;;;;;;;;21.67;21.67;;;;;17.68;70.08;101178.03;4956282;28;45562;-59
2022/09/11 07:18:40;;;;;;;;;24.00;24.00;;;;;17.64;70.00;101171.16;4956693;28;45707;-58
2022/09/11 07:21:10;;;;;;;;;26.00;26.00;;;;;17.68;69.86;101175.38;4959771;28;45417;-58
2022/09/11 07:23:36;;;;;;;;;23.33;22.67;;;;;17.71;70.13;101171.69;4959686;28;45477;-58
2022/09/11 07:26:08;;;;;;;;;23.33;23.33;;;;;17.74;69.96;101183.00;4959529;28;45410;-58
2022/09/11 07:28:36;;;;;;;;;23.33;21.33;;;;;17.73;69.75;101180.41;4959345;28;45438;-58
2022/09/11 07:31:14;;;;;;;;;25.00;22.00;;;;;17.76;69.95;101181.13;4959606;28;45525;-58
2022/09/11 07:33:44;;;;;;;;;23.33;23.33;;;;;17.84;70.08;101189.56;4959883;28;45464;-58
2022/09/11 07:36:13;;;;;;;;;25.67;24.00;;;;;17.86;69.79;101187.66;4941461;28;46296;-59
2022/09/11 07:38:43;;;;;;;;;25.00;24.00;;;;;17.87;70.19;101193.88;4959276;28;45455;-59
2022/09/11 07:41:09;;;;;;;;;24.00;23.67;;;;;17.88;69.70;101191.09;4959452;28;45315;-59
2022/09/11 07:43:40;;;;;;;;;23.00;23.00;;;;;17.92;69.96;101181.16;4959464;28;45357;-58
2022/09/11 07:46:06;;;;;;;;;30.00;26.33;;;;;17.91;70.18;101178.56;4959451;28;47126;-59
2022/09/11 07:48:32;;;;;;;;;33.00;31.00;;;;;17.94;70.28;101189.03;4959368;28;45513;-60
2022/09/11 07:51:03;;;;;;;;;28.00;26.67;;;;;17.98;70.05;101185.28;4959356;28;45378;-60
2022/09/11 07:53:49;;;;;;;;;30.67;27.33;;;;;17.97;70.19;101188.84;4959186;28;45414;-60
2022/09/11 07:56:17;;;;;;;;;27.33;26.00;;;;;17.99;69.98;101189.63;4958970;28;45557;-58
2022/09/11 07:58:44;;;;;;;;;33.67;31.00;;;;;18.00;70.36;101180.69;4959174;28;45475;-58
2022/09/11 08:01:12;;;;;;;;;31.67;30.00;;;;;17.96;70.19;101166.72;4959180;28;45378;-58
2022/09/11 08:03:37;;;;;;;;;25.00;24.67;;;;;18.05;70.23;101190.16;4958915;28;45477;-59
2022/09/11 08:06:17;;;;;;;;;26.33;26.33;;;;;18.04;69.96;101188.44;4958676;28;46341;-58
2022/09/11 08:08:43;;;;;;;;;29.33;27.33;;;;;18.03;69.56;101186.72;4958808;28;45381;-59
2022/09/11 08:11:11;;;;;;;;;28.33;27.67;;;;;17.99;69.61;101186.97;4941302;28;45386;-58
2022/09/11 08:13:37;;;;;;;;;28.00;25.33;;;;;17.98;69.35;101186.13;4958880;28;45363;-59
2022/09/11 08:16:04;;;;;;;;;24.67;24.67;;;;;17.94;69.73;101176.59;4941234;28;46325;-59
2022/09/11 08:18:29;;;;;;;;;27.67;27.67;;;;;17.96;69.37;101188.00;4958798;28;45434;-58
2022/09/11 08:21:10;;;;;;;;;28.00;27.00;;;;;17.94;69.48;101176.59;4958669;28;45515;-58
2022/09/11 08:23:39;;;;;;;;;28.00;27.00;;;;;17.98;69.58;101174.63;4958716;28;45343;-58
2022/09/11 08:26:09;;;;;;;;;26.67;24.33;;;;;17.99;69.70;101176.31;4958427;28;45598;-59
2022/09/11 08:28:36;;;;;;;;;29.00;27.33;;;;;18.00;69.61;101175.38;4958620;28;45502;-59
2022/09/11 08:31:01;;;;;;;;;26.00;26.00;;;;;18.03;69.24;101177.88;4957265;28;45330;-58
2022/09/11 08:33:28;;;;;;;;;26.00;25.33;;;;;17.98;69.84;101177.28;4958849;28;45668;-58
2022/09/11 08:35:54;;;;;;;;;27.00;24.00;;;;;18.07;69.23;101184.72;4958342;28;45561;-58
2022/09/11 08:38:19;;;;;;;;;24.67;24.00;;;;;18.09;69.60;101188.16;4958248;28;45470;-58
2022/09/11 08:40:45;;;;;;;;;27.67;24.33;;;;;18.09;69.10;101185.50;4958416;28;46084;-59
2022/09/11 08:43:25;;;;;;;;;26.67;26.00;;;;;18.12;69.43;101190.66;4958437;28;45437;-60
2022/09/11 08:45:55;;;;;;;;;29.00;26.00;;;;;18.15;69.45;101193.13;4958030;28;46058;-59
2022/09/11 08:48:28;;;;;;;;;33.33;31.33;;;;;18.19;69.15;101193.81;4958017;28;45461;-59
2022/09/11 08:50:54;;;;;;;;;25.00;21.67;;;;;18.21;69.60;101194.59;4958457;28;45454;-59
2022/09/11 08:53:19;;;;;;;;;24.33;23.33;;;;;18.25;69.00;101198.81;4958155;28;45425;-60
2022/09/11 08:56:01;;;;;;;;;26.00;24.67;;;;;18.28;68.96;101187.97;4957845;28;46311;-59
2022/09/11 08:58:54;;;;;;;;;24.33;23.67;;;;;18.30;68.65;101199.41;4958273;28;45395;-59
2022/09/11 09:01:35;;;;;;;;;28.67;26.33;;;;;18.28;69.43;101186.16;4958063;28;45577;-59
2022/09/11 09:04:40;;;;;;;;;35.00;30.33;;;;;18.33;68.98;101197.41;4957955;28;45454;-58
2022/09/11 09:07:48;;;;;;;;;23.67;23.33;;;;;18.35;68.75;101200.00;4957841;28;45501;-59
2022/09/11 09:10:23;;;;;;;;;28.33;26.00;;;;;18.37;68.58;101203.41;4958060;28;45446;-58
2022/09/11 09:13:11;;;;;;;;;26.00;24.00;;;;;18.40;68.98;101207.69;4958143;28;45345;-58
2022/09/11 09:16:17;;;;;;;;;27.33;25.00;;;;;18.45;68.60;101208.28;4972758;28;45635;-59
2022/09/11 09:18:49;;;;;;;;;21.33;20.67;;;;;18.41;68.85;101196.09;4878884;29;45760;-60
2022/09/11 09:21:23;;;;;;;;;27.67;25.67;;;;;18.50;68.81;101209.72;4879384;29;45541;-59
2022/09/11 09:23:53;;;;;;;;;23.67;22.67;;;;;18.51;68.00;101205.25;4922999;28;45556;-59
2022/09/11 09:26:19;;;;;;;;;31.00;26.33;;;;;18.50;68.50;101199.06;4972816;28;45499;-59
2022/09/11 09:28:47;;;;;;;;;25.33;23.33;;;;;18.53;68.19;101201.53;4957473;28;45509;-58
2022/09/11 09:31:19;;;;;;;;;22.00;22.00;;;;;18.62;67.94;101209.94;4957677;28;45456;-59
2022/09/11 09:34:08;;;;;;;;;23.67;23.67;;;;;18.66;68.20;101215.00;4958478;28;45823;-59
2022/09/11 09:36:44;;;;;;;;;19.00;18.67;;;;;18.62;67.96;101202.84;4957792;28;45623;-60
2022/09/11 09:39:16;;;;;;;;;21.00;21.00;;;;;18.68;67.52;101212.25;4957441;28;46021;-59
2022/09/11 09:41:48;;;;;;;;;26.00;23.67;;;;;18.73;67.70;101211.03;4957093;28;45418;-59
2022/09/11 09:44:22;;;;;;;;;20.67;19.67;;;;;18.81;67.72;101209.75;4957647;28;45494;-59
2022/09/11 09:46:51;;;;;;;;;19.00;18.67;;;;;18.82;67.36;101203.47;4957595;28;45616;-60
2022/09/11 09:49:31;;;;;;;;;15.00;15.00;;;;;18.80;67.21;101200.03;4957332;28;46028;-60
2022/09/11 09:51:59;;;;;;;;;23.67;22.33;;;;;18.90;66.53;101201.19;4957209;28;45450;-59
2022/09/11 09:54:28;;;;;;;;;21.33;19.67;;;;;18.91;66.37;101200.22;4957450;28;45413;-60
2022/09/11 09:57:03;;;;;;;;;24.67;21.33;;;;;18.95;66.94;101199.13;4957443;28;45388;-59
2022/09/11 09:59:36;;;;;;;;;24.67;21.67;;;;;18.99;66.49;101208.63;4939399;28;47151;-59
2022/09/11 10:02:04;;;;;;;;;23.67;23.67;;;;;18.98;66.56;101193.59;4957119;28;45428;-59
2022/09/11 10:04:30;;;;;;;;;25.33;24.67;;;;;18.97;66.15;101191.88;4957313;28;45429;-59
2022/09/11 10:07:13;;;;;;;;;19.33;18.00;;;;;19.04;67.24;101192.34;4957110;28;45456;-58
2022/09/11 10:09:53;;;;;;;;;20.33;19.33;;;;;19.35;65.72;101197.50;4957215;28;46148;-59
2022/09/11 10:12:23;;;;;;;;;20.33;20.00;;;;;19.55;64.83;101193.56;4956854;28;45556;-59
2022/09/11 10:14:58;;;;;;;;;21.67;19.00;;;;;19.58;65.38;101203.19;4957221;28;45424;-59
2022/09/11 10:17:30;;;;;;;;;16.67;16.67;;;;;19.73;65.14;101198.75;4956889;28;45400;-59
2022/09/11 10:20:11;;;;;;;;;16.67;16.67;;;;;19.89;64.44;101190.59;4956847;28;46993;-60
2022/09/11 10:22:36;;;;;;;;;21.33;18.67;;;;;19.89;64.01;101193.28;4957085;28;45434;-59
2022/09/11 10:25:09;;;;;;;;;17.33;16.00;;;;;19.83;64.07;101192.72;4957062;28;45438;-60
2022/09/11 10:27:49;;;;;;;;;15.00;14.67;;;;;19.80;63.57;101192.03;4957045;28;45430;-59
2022/09/11 10:30:28;;;;;;;;;16.00;14.67;;;;;19.77;63.46;101185.09;4956731;28;46781;-59
2022/09/11 10:32:55;;;;;;;;;15.33;15.33;;;;;19.74;63.82;101187.94;4957420;28;45327;-59
2022/09/11 10:35:24;;;;;;;;;13.67;13.67;;;;;19.74;63.29;101193.28;4957094;28;45387;-58
2022/09/11 10:38:04;;;;;;;;;14.67;12.00;;;;;19.75;63.43;101180.81;4956903;28;45521;-59
2022/09/11 10:40:30;;;;;;;;;13.67;13.67;;;;;19.71;63.13;101176.63;4956587;28;45502;-59
2022/09/11 10:42:55;;;;;;;;;13.00;13.00;;;;;19.74;63.04;101179.94;4956579;28;46326;-59
2022/09/11 10:45:21;;;;;;;;;15.67;14.00;;;;;19.60;63.54;101159.44;4939449;28;45416;-60
2022/09/11 10:47:47;;;;;;;;;14.33;14.33;;;;;19.76;63.26;101172.69;4956746;28;45540;-61
2022/09/11 10:50:15;;;;;;;;;14.67;11.67;;;;;19.80;63.31;101174.22;4956787;28;45390;-59
2022/09/11 10:53:01;;;;;;;;;9.67;9.67;;;;;19.80;62.72;101170.66;4956450;28;45446;-59
2022/09/11 10:55:34;;;;;;;;;11.00;10.00;;;;;19.85;61.93;101163.22;4959780;28;45492;-59
2022/09/11 10:58:15;;;;;;;;;13.67;12.00;;;;;19.91;62.35;101153.97;4960227;28;45424;-59
2022/09/11 11:00:40;;;;;;;;;13.33;13.33;;;;;19.97;62.82;101157.09;4959829;28;45997;-60
2022/09/11 11:03:27;;;;;;;;;12.00;12.00;;;;;20.02;62.71;101143.44;4960035;28;45481;-59
2022/09/11 11:06:07;;;;;;;;;11.33;11.33;;;;;20.11;62.68;101148.16;4959789;28;45465;-60
2022/09/11 11:08:54;;;;;;;;;9.67;9.67;;;;;20.17;62.48;101142.41;4942336;28;45514;-60
2022/09/11 11:11:40;;;;;;;;;11.67;11.67;;;;;20.21;62.19;101141.25;4974596;28;48474;-60
2022/09/11 11:14:10;;;;;;;;;11.67;11.67;;;;;20.26;61.47;101140.97;4959627;28;45424;-60
2022/09/11 11:16:52;;;;;;;;;10.00;10.00;;;;;20.21;60.88;101135.91;4959716;28;45399;-59
2022/09/11 11:19:29;;;;;;;;;9.00;9.00;;;;;20.21;61.12;101140.41;4960038;28;45434;-60
2022/09/11 11:22:20;;;;;;;;;11.67;11.33;;;;;20.28;61.43;101145.25;4959580;28;45457;-59
2022/09/11 11:25:11;;;;;;;;;12.33;12.33;;;;;20.25;61.55;101134.72;4948947;28;45399;-60
2022/09/11 11:28:01;;;;;;;;;9.33;8.00;;;;;20.28;60.07;101134.56;4959785;28;45475;-59